createdAt,value
2023-05-25T00:00:00.048Z,5.53
2023-05-25T00:02:09.209Z,5.55
2023-05-25T00:04:21.052Z,5.28
2023-05-25T00:06:28.565Z,5.50
2023-05-25T00:08:39.017Z,6.18
2023-05-25T00:10:50.718Z,5.40
2023-05-25T00:12:57.081Z,5.65
2023-05-25T00:15:17.412Z,5.07
2023-05-25T00:19:23.411Z,5.07
2023-05-25T00:23:31.684Z,5.53
2023-05-25T00:25:35.972Z,5.68
2023-05-25T00:27:40.354Z,4.82
2023-05-25T00:29:44.607Z,6.07
2023-05-25T00:32:04.932Z,4.82
2023-05-25T00:34:25.004Z,5.40
2023-05-25T00:36:32.096Z,5.75
2023-05-25T00:38:36.534Z,6.55
2023-05-25T00:40:39.188Z,5.93
2023-05-25T00:42:44.033Z,5.93
2023-05-25T00:45:04.374Z,5.65
2023-05-25T00:47:08.629Z,6.03
2023-05-25T00:49:16.810Z,6.80
2023-05-25T00:51:18.296Z,4.88
2023-05-25T00:53:19.703Z,5.32
2023-05-25T00:57:25.526Z,6.13
2023-05-25T00:59:44.229Z,5.38
2023-05-25T01:01:48.674Z,6.35
2023-05-25T01:03:54.003Z,5.00
2023-05-25T01:05:58.059Z,5.60
2023-05-25T01:08:01.741Z,5.38
2023-05-25T01:10:07.046Z,5.25
2023-05-25T01:12:09.292Z,5.18
2023-05-25T01:14:10.937Z,5.45
2023-05-25T01:16:31.382Z,4.93
2023-05-25T01:18:33.901Z,5.55
2023-05-25T01:21:13.050Z,4.97
2023-05-25T01:23:15.680Z,6.03
2023-05-25T01:25:25.296Z,6.32
2023-05-25T01:27:32.597Z,5.22
2023-05-25T01:29:39.097Z,5.50
2023-05-25T01:31:59.493Z,5.57
2023-05-25T01:34:01.376Z,5.75
2023-05-25T01:36:03.192Z,5.50
2023-05-25T01:38:04.737Z,4.80
2023-05-25T01:40:06.544Z,5.10
2023-05-25T01:42:08.034Z,4.68
2023-05-25T01:44:09.920Z,6.72
2023-05-25T01:46:17.625Z,5.97
2023-05-25T01:48:37.790Z,4.43
2023-05-25T01:50:47.769Z,6.13
2023-05-25T01:53:13.685Z,5.88
2023-05-25T01:55:16.616Z,5.72
2023-05-25T01:57:21.248Z,6.65
2023-05-25T01:59:26.218Z,5.85
2023-05-25T02:01:27.998Z,7.05
2023-05-25T02:03:29.541Z,6.80
2023-05-25T02:07:34.816Z,6.93
2023-05-25T02:09:36.269Z,5.97
2023-05-25T02:11:37.701Z,5.60
2023-05-25T02:13:42.067Z,5.68
2023-05-25T02:16:02.453Z,6.57
2023-05-25T02:18:06.704Z,6.03
2023-05-25T02:20:08.821Z,5.20
2023-05-25T02:22:10.494Z,5.95
2023-05-25T02:24:14.742Z,6.35
2023-05-25T02:26:16.783Z,5.50
2023-05-25T02:28:20.900Z,6.95
2023-05-25T02:30:25.460Z,6.13
2023-05-25T02:32:29.461Z,6.47
2023-05-25T02:36:35.143Z,5.55
2023-05-25T02:38:39.418Z,5.43
2023-05-25T02:40:45.629Z,7.00
2023-05-25T02:42:51.845Z,5.88
2023-05-25T02:44:56.585Z,5.05
2023-05-25T02:46:59.922Z,5.38
2023-05-25T02:49:21.402Z,5.38
2023-05-25T02:51:24.907Z,6.43
2023-05-25T02:53:28.469Z,7.30
2023-05-25T02:55:32.076Z,6.00
2023-05-25T02:57:35.323Z,5.85
2023-05-25T02:59:41.887Z,6.35
2023-05-25T03:02:03.256Z,5.78
2023-05-25T03:04:09.543Z,6.07
2023-05-25T03:06:15.984Z,5.53
2023-05-25T03:08:19.308Z,6.07
2023-05-25T03:10:22.508Z,5.75
2023-05-25T03:12:25.956Z,7.25
2023-05-25T03:14:29.375Z,6.55
2023-05-25T03:16:31.636Z,5.70
2023-05-25T03:18:33.191Z,5.95
2023-05-25T03:20:34.897Z,7.20
2023-05-25T03:22:39.168Z,6.90
2023-05-25T03:24:45.141Z,5.70
2023-05-25T03:26:46.620Z,7.13
2023-05-25T03:28:48.050Z,5.90
2023-05-25T03:30:52.460Z,5.97
2023-05-25T03:32:54.003Z,5.90
2023-05-25T03:34:55.711Z,6.60
2023-05-25T03:36:59.775Z,6.43
2023-05-25T03:39:01.320Z,5.90
2023-05-25T03:41:02.830Z,6.20
2023-05-25T03:43:04.322Z,6.47
2023-05-25T03:45:06.260Z,5.95
2023-05-25T03:47:11.428Z,4.95
2023-05-25T03:49:14.232Z,6.35
2023-05-25T03:51:18.638Z,6.15
2023-05-25T03:53:23.084Z,6.38
2023-05-25T03:55:24.536Z,4.68
2023-05-25T03:57:28.764Z,6.00
2023-05-25T03:59:30.830Z,5.97
2023-05-25T04:01:32.367Z,5.53
2023-05-25T04:03:34.073Z,5.72
2023-05-25T04:05:36.921Z,6.20
2023-05-25T04:07:38.595Z,6.88
2023-05-25T04:09:42.582Z,6.07
2023-05-25T04:11:44.562Z,5.85
2023-05-25T04:13:48.883Z,6.32
2023-05-25T04:15:54.774Z,5.88
2023-05-25T04:17:56.282Z,5.50
2023-05-25T04:19:57.865Z,6.25
2023-05-25T04:22:02.291Z,5.45
2023-05-25T04:24:09.560Z,5.10
2023-05-25T04:26:15.723Z,5.82
2023-05-25T04:28:20.276Z,5.85
2023-05-25T04:30:24.778Z,5.45
2023-05-25T04:32:45.864Z,6.53
2023-05-25T04:34:48.248Z,6.22
2023-05-25T04:36:53.200Z,5.75
2023-05-25T04:38:55.347Z,6.00
2023-05-25T04:40:57.777Z,6.97
2023-05-25T04:42:59.596Z,6.30
2023-05-25T04:45:01.577Z,6.28
2023-05-25T04:47:07.366Z,5.70
2023-05-25T04:49:13.249Z,7.10
2023-05-25T04:51:14.771Z,5.65
2023-05-25T04:55:20.206Z,6.07
2023-05-25T04:57:22.329Z,6.57
2023-05-25T04:59:29.428Z,6.43
2023-05-25T05:01:40.875Z,6.35
2023-05-25T05:03:45.728Z,6.47
2023-05-25T05:06:06.378Z,6.03
2023-05-25T05:08:08.028Z,5.88
2023-05-25T05:10:09.570Z,6.13
2023-05-25T05:12:14.161Z,6.18
2023-05-25T05:14:18.368Z,6.07
2023-05-25T05:16:19.961Z,6.18
2023-05-25T05:18:24.226Z,6.95
2023-05-25T05:20:28.627Z,5.18
2023-05-25T05:22:33.571Z,6.40
2023-05-25T05:24:37.917Z,5.95
2023-05-25T05:26:59.341Z,8.00
2023-05-25T05:29:19.970Z,5.85
2023-05-25T05:31:24.321Z,6.43
2023-05-25T05:33:29.005Z,7.43
2023-05-25T05:35:33.493Z,6.65
2023-05-25T05:37:53.658Z,6.80
2023-05-25T05:39:55.146Z,7.18
2023-05-25T05:41:56.735Z,7.22
2023-05-25T05:43:58.300Z,6.50
2023-05-25T05:46:18.544Z,6.78
2023-05-25T05:48:27.706Z,6.97
2023-05-25T05:50:33.037Z,7.97
2023-05-25T05:52:45.196Z,7.68
2023-05-25T05:55:13.177Z,7.85
2023-05-25T05:57:31.504Z,7.32
2023-05-25T05:59:53.144Z,7.40
2023-05-25T06:02:14.126Z,7.78
2023-05-25T06:04:45.366Z,6.85
2023-05-25T06:07:02.970Z,6.88
2023-05-25T06:09:10.756Z,7.00
2023-05-25T06:11:19.107Z,7.47
2023-05-25T06:13:36.042Z,7.68
2023-05-25T06:16:02.111Z,7.88
2023-05-25T06:18:27.085Z,8.27
2023-05-25T06:20:41.605Z,6.72
2023-05-25T06:23:16.370Z,7.03
2023-05-25T06:25:42.556Z,8.48
2023-05-25T06:28:02.971Z,8.70
2023-05-25T06:32:10.893Z,7.90
2023-05-25T06:34:15.478Z,8.05
2023-05-25T06:36:19.990Z,7.78
2023-05-25T06:38:24.203Z,7.75
2023-05-25T06:40:28.567Z,7.13
2023-05-25T06:42:32.607Z,8.93
2023-05-25T06:44:34.971Z,7.43
2023-05-25T06:46:36.644Z,7.07
2023-05-25T06:48:41.433Z,8.82
2023-05-25T06:50:42.981Z,8.10
2023-05-25T06:52:44.524Z,8.18
2023-05-25T06:55:05.320Z,8.43
2023-05-25T06:57:09.558Z,8.85
2023-05-25T06:59:11.011Z,8.77
2023-05-25T07:01:15.968Z,7.95
2023-05-25T07:03:20.325Z,8.15
2023-05-25T07:05:24.648Z,8.98
2023-05-25T07:07:26.535Z,7.80
2023-05-25T07:09:30.952Z,7.78
2023-05-25T07:11:35.467Z,7.82
2023-05-25T07:13:36.957Z,8.55
2023-05-25T07:15:41.340Z,7.95
2023-05-25T07:18:01.792Z,9.18
2023-05-25T07:20:04.889Z,8.20
2023-05-25T07:22:10.556Z,7.88
2023-05-25T07:24:30.799Z,8.50
2023-05-25T07:26:33.385Z,8.57
2023-05-25T07:28:53.722Z,7.47
2023-05-25T07:30:55.468Z,7.78
2023-05-25T07:33:00.124Z,8.48
2023-05-25T07:35:05.096Z,8.40
2023-05-25T07:37:25.434Z,8.35
2023-05-25T07:39:29.800Z,7.35
2023-05-25T07:41:31.506Z,9.88
2023-05-25T07:43:35.522Z,8.93
2023-05-25T07:45:37.129Z,8.73
2023-05-25T07:47:38.572Z,8.60
2023-05-25T07:49:43.169Z,9.27
2023-05-25T07:51:45.527Z,8.05
2023-05-25T07:53:47.182Z,7.85
2023-05-25T07:55:48.685Z,7.93
2023-05-25T08:00:12.907Z,7.60
2023-05-25T08:02:14.466Z,7.25
2023-05-25T08:04:19.046Z,7.95
2023-05-25T08:06:20.849Z,7.15
2023-05-25T08:08:25.257Z,6.82
2023-05-25T08:10:32.337Z,7.10
2023-05-25T08:12:46.026Z,7.85
2023-05-25T08:14:49.129Z,7.10
2023-05-25T08:16:51.343Z,6.53
2023-05-25T08:18:52.944Z,6.13
2023-05-25T08:20:54.541Z,6.57
2023-05-25T08:22:56.081Z,6.88
2023-05-25T08:25:00.199Z,5.45
2023-05-25T08:27:04.662Z,5.78
2023-05-25T08:29:06.370Z,5.57
2023-05-25T08:31:08.000Z,5.80
2023-05-25T08:33:12.959Z,6.07
2023-05-25T08:35:33.367Z,5.70
2023-05-25T08:37:37.701Z,5.63
2023-05-25T08:39:42.078Z,5.65
2023-05-25T08:41:46.182Z,5.13
2023-05-25T08:43:47.700Z,5.40
2023-05-25T08:45:59.964Z,4.97
2023-05-25T08:48:06.588Z,4.28
2023-05-25T08:50:11.701Z,4.82
2023-05-25T08:52:19.246Z,4.22
2023-05-25T08:54:31.919Z,4.45
2023-05-25T08:58:44.159Z,5.00
2023-05-25T09:00:53.905Z,5.03
2023-05-25T09:02:57.320Z,4.03
2023-05-25T09:05:04.174Z,3.80
2023-05-25T09:07:12.116Z,3.80
2023-05-25T09:09:15.595Z,3.25
2023-05-25T09:11:36.026Z,3.10
2023-05-25T09:13:44.741Z,3.70
2023-05-25T09:15:48.316Z,3.20
2023-05-25T09:17:55.350Z,3.63
2023-05-25T09:20:01.462Z,2.65
2023-05-25T09:22:15.700Z,2.95
2023-05-25T09:24:24.000Z,2.80
2023-05-25T09:26:49.886Z,3.45
2023-05-25T09:28:53.547Z,3.15
2023-05-25T09:31:00.469Z,3.33
2023-05-25T09:33:20.741Z,3.40
2023-05-25T09:35:41.368Z,3.13
2023-05-25T09:37:44.143Z,3.08
2023-05-25T09:39:48.565Z,3.45
2023-05-25T09:41:50.200Z,2.80
2023-05-25T09:44:02.286Z,3.00
2023-05-25T09:46:11.662Z,2.65
2023-05-25T09:48:16.299Z,3.28
2023-05-25T09:50:18.053Z,4.63
2023-05-25T09:52:19.582Z,2.97
2023-05-25T09:54:22.778Z,2.97
2023-05-25T09:56:28.342Z,2.83
2023-05-25T09:58:32.735Z,2.85
2023-05-25T10:00:37.296Z,3.47
2023-05-25T10:02:39.076Z,3.17
2023-05-25T10:04:43.501Z,3.92
2023-05-25T10:06:49.933Z,2.92
2023-05-25T10:08:53.730Z,3.78
2023-05-25T10:10:55.391Z,3.45
2023-05-25T10:13:00.558Z,2.80
2023-05-25T10:15:06.475Z,2.53
2023-05-25T10:17:10.098Z,3.30
2023-05-25T10:19:34.402Z,2.80
2023-05-25T10:21:42.740Z,3.22
2023-05-25T10:23:54.547Z,3.25
2023-05-25T10:26:00.434Z,3.25
2023-05-25T10:28:12.008Z,3.00
2023-05-25T10:30:14.289Z,3.15
2023-05-25T10:32:19.228Z,2.37
2023-05-25T10:34:21.284Z,2.75
2023-05-25T10:36:26.601Z,2.70
2023-05-25T10:38:31.698Z,2.75
2023-05-25T10:40:36.143Z,2.80
2023-05-25T10:42:38.018Z,2.60
2023-05-25T10:44:42.960Z,2.80
2023-05-25T10:46:45.696Z,2.90
2023-05-25T10:48:51.827Z,2.63
2023-05-25T10:50:53.385Z,2.60
2023-05-25T10:53:13.927Z,2.77
2023-05-25T10:55:18.367Z,2.80
2023-05-25T10:57:21.328Z,2.65
2023-05-25T10:59:26.157Z,2.72
2023-05-25T11:01:33.709Z,3.15
2023-05-25T11:03:45.068Z,3.33
2023-05-25T11:05:50.464Z,3.67
2023-05-25T11:07:58.908Z,3.42
2023-05-25T11:10:03.541Z,3.20
2023-05-25T11:12:05.193Z,3.08
2023-05-25T11:14:32.833Z,2.38
2023-05-25T11:16:36.330Z,2.92
2023-05-25T11:18:38.293Z,3.03
2023-05-25T11:20:40.254Z,2.30
2023-05-25T11:22:44.849Z,2.60
2023-05-25T11:24:47.331Z,3.05
2023-05-25T11:27:01.538Z,2.80
2023-05-25T11:29:13.765Z,2.53
2023-05-25T11:31:37.559Z,2.60
2023-05-25T11:33:44.889Z,3.17
2023-05-25T11:35:50.202Z,2.90
2023-05-25T11:37:53.613Z,4.25
2023-05-25T11:39:55.294Z,3.63
2023-05-25T11:41:57.609Z,3.00
2023-05-25T11:44:06.751Z,2.78
2023-05-25T11:46:27.599Z,3.20
2023-05-25T11:48:29.125Z,3.38
2023-05-25T11:50:31.116Z,3.42
2023-05-25T11:52:32.750Z,3.53
2023-05-25T11:54:36.873Z,2.97
2023-05-25T11:56:38.494Z,2.90
2023-05-25T11:58:44.771Z,3.22
2023-05-25T12:00:46.499Z,2.92
2023-05-25T12:02:49.253Z,3.22
2023-05-25T12:04:58.622Z,2.78
2023-05-25T12:07:05.561Z,3.80
2023-05-25T12:09:34.789Z,2.78
2023-05-25T12:11:49.550Z,2.70
2023-05-25T12:14:02.856Z,2.60
2023-05-25T12:16:13.279Z,3.10
2023-05-25T12:18:24.429Z,3.25
2023-05-25T12:20:36.886Z,2.80
2023-05-25T12:22:47.622Z,2.90
2023-05-25T12:25:02.285Z,2.38
2023-05-25T12:27:23.022Z,2.90
2023-05-25T12:29:35.605Z,2.47
2023-05-25T12:31:50.230Z,2.75
2023-05-25T12:34:13.616Z,2.58
2023-05-25T12:38:40.563Z,2.35
2023-05-25T12:41:11.609Z,2.58
2023-05-25T12:43:24.269Z,2.90
2023-05-25T12:45:30.611Z,2.65
2023-05-25T12:47:32.390Z,3.15
2023-05-25T12:49:34.320Z,2.72
2023-05-25T12:51:39.228Z,2.75
2023-05-25T12:53:48.164Z,2.50
2023-05-25T12:56:12.781Z,2.45
2023-05-25T12:58:33.030Z,2.50
2023-05-25T13:00:53.289Z,2.72
2023-05-25T13:02:57.857Z,2.72
2023-05-25T13:05:02.595Z,2.47
2023-05-25T13:07:10.680Z,2.80
2023-05-25T13:09:14.559Z,2.70
2023-05-25T13:11:18.778Z,2.72
2023-05-25T13:13:20.368Z,2.70
2023-05-25T13:15:22.014Z,2.25
2023-05-25T13:17:26.617Z,2.25
2023-05-25T13:19:34.109Z,2.15
2023-05-25T13:21:36.051Z,3.08
2023-05-25T13:23:38.925Z,2.30
2023-05-25T13:25:41.696Z,3.67
2023-05-25T13:27:44.345Z,3.03
2023-05-25T13:29:52.206Z,2.30
2023-05-25T13:31:53.775Z,2.20
2023-05-25T13:33:57.283Z,2.83
2023-05-25T13:35:59.079Z,2.42
2023-05-25T13:38:00.788Z,2.55
2023-05-25T13:40:02.292Z,2.45
2023-05-25T13:42:07.612Z,3.40
2023-05-25T13:44:15.144Z,3.45
2023-05-25T13:46:37.863Z,2.80
2023-05-25T13:48:40.243Z,2.85
2023-05-25T13:50:47.901Z,2.92
2023-05-25T13:52:49.448Z,2.28
2023-05-25T13:55:09.345Z,2.58
2023-05-25T13:57:16.581Z,2.80
2023-05-25T13:59:18.068Z,3.85
2023-05-25T14:01:27.560Z,2.70
2023-05-25T14:03:33.096Z,2.97
2023-05-25T14:05:40.915Z,2.50
2023-05-25T14:07:42.588Z,2.92
2023-05-25T14:09:47.108Z,3.25
2023-05-25T14:11:53.518Z,3.05
2023-05-25T14:13:55.482Z,2.70
2023-05-25T14:16:00.246Z,3.45
2023-05-25T14:18:20.306Z,2.72
2023-05-25T14:20:42.748Z,3.45
2023-05-25T14:23:02.950Z,2.55
2023-05-25T14:25:08.324Z,3.08
2023-05-25T14:27:09.932Z,3.42
2023-05-25T14:29:14.295Z,2.97
2023-05-25T14:31:18.900Z,2.78
2023-05-25T14:33:20.517Z,2.92
2023-05-25T14:35:23.540Z,3.03
2023-05-25T14:37:25.071Z,3.35
2023-05-25T14:39:29.822Z,3.15
2023-05-25T14:41:31.278Z,3.35
2023-05-25T14:43:38.886Z,3.28
2023-05-25T14:45:40.722Z,3.22
2023-05-25T14:47:45.101Z,3.65
2023-05-25T14:49:53.608Z,2.85
2023-05-25T14:51:55.176Z,3.22
2023-05-25T14:53:57.775Z,2.70
2023-05-25T14:56:04.074Z,3.05
2023-05-25T14:58:08.448Z,2.63
2023-05-25T15:00:29.085Z,4.38
2023-05-25T15:02:33.635Z,2.80
2023-05-25T15:04:38.252Z,3.35
2023-05-25T15:06:42.425Z,3.25
2023-05-25T15:08:47.026Z,3.20
2023-05-25T15:10:51.969Z,2.88
2023-05-25T15:12:53.830Z,3.55
2023-05-25T15:14:57.837Z,3.40
2023-05-25T15:17:13.915Z,3.30
2023-05-25T15:19:25.207Z,3.55
2023-05-25T15:21:40.814Z,3.08
2023-05-25T15:24:07.524Z,3.38
2023-05-25T15:26:17.783Z,4.28
2023-05-25T15:28:29.469Z,3.47
2023-05-25T15:30:39.165Z,3.17
2023-05-25T15:32:48.773Z,2.55
2023-05-25T15:34:53.547Z,3.33
2023-05-25T15:37:04.388Z,2.97
2023-05-25T15:39:14.314Z,2.60
2023-05-25T15:41:40.472Z,3.35
2023-05-25T15:44:05.568Z,3.55
2023-05-25T15:46:20.686Z,3.90
2023-05-25T15:48:26.575Z,3.17
2023-05-25T15:50:32.673Z,3.03
2023-05-25T15:52:52.897Z,4.13
2023-05-25T15:54:57.230Z,3.30
2023-05-25T15:57:18.272Z,3.10
2023-05-25T15:59:22.552Z,3.55
2023-05-25T16:01:26.861Z,3.45
2023-05-25T16:03:29.313Z,3.50
2023-05-25T16:05:49.464Z,3.15
2023-05-25T16:07:53.979Z,3.60
2023-05-25T16:10:14.202Z,3.65
2023-05-25T16:12:15.698Z,3.30
2023-05-25T16:14:35.950Z,4.25
2023-05-25T16:16:40.197Z,3.72
2023-05-25T16:18:41.849Z,3.50
2023-05-25T16:20:43.986Z,3.55
2023-05-25T16:22:48.635Z,3.92
2023-05-25T16:24:50.266Z,2.85
2023-05-25T16:26:51.995Z,3.83
2023-05-25T16:28:53.654Z,3.92
2023-05-25T16:30:57.691Z,3.80
2023-05-25T16:32:59.552Z,3.00
2023-05-25T16:35:03.864Z,3.25
2023-05-25T16:37:07.928Z,3.38
2023-05-25T16:39:11.682Z,3.65
2023-05-25T16:41:13.157Z,3.55
2023-05-25T16:43:14.581Z,3.53
2023-05-25T16:45:16.158Z,4.28
2023-05-25T16:47:20.565Z,4.03
2023-05-25T16:49:25.060Z,3.53
2023-05-25T16:51:26.560Z,4.07
2023-05-25T16:53:28.060Z,3.15
2023-05-25T16:55:33.649Z,3.10
2023-05-25T16:57:53.675Z,4.05
2023-05-25T16:59:57.722Z,4.13
2023-05-25T17:02:02.070Z,3.85
2023-05-25T17:04:06.561Z,3.10
2023-05-25T17:06:11.313Z,3.20
2023-05-25T17:08:12.912Z,4.25
2023-05-25T17:10:17.334Z,3.80
2023-05-25T17:12:18.960Z,3.42
2023-05-25T17:14:23.043Z,3.63
2023-05-25T17:16:24.737Z,3.40
2023-05-25T17:18:26.960Z,4.32
2023-05-25T17:20:47.132Z,3.33
2023-05-25T17:22:49.739Z,2.90
2023-05-25T17:24:51.186Z,3.00
2023-05-25T17:26:55.567Z,3.83
2023-05-25T17:29:00.956Z,2.97
2023-05-25T17:31:02.586Z,3.45
2023-05-25T17:33:06.982Z,3.88
2023-05-25T17:35:11.189Z,3.92
2023-05-25T17:37:15.525Z,3.42
2023-05-25T17:39:19.762Z,4.40
2023-05-25T17:41:24.330Z,3.30
2023-05-25T17:43:28.642Z,3.50
2023-05-25T17:45:35.904Z,3.47
2023-05-25T17:47:57.265Z,3.10
2023-05-25T17:50:01.503Z,3.50
2023-05-25T17:52:03.072Z,4.47
2023-05-25T17:54:04.577Z,3.03
2023-05-25T17:56:06.099Z,3.10
2023-05-25T17:58:26.511Z,3.15
2023-05-25T18:00:31.916Z,3.13
2023-05-25T18:02:34.140Z,3.03
2023-05-25T18:04:35.843Z,2.92
2023-05-25T18:06:40.161Z,3.85
2023-05-25T18:08:41.674Z,2.92
2023-05-25T18:10:45.903Z,3.17
2023-05-25T18:13:06.161Z,4.00
2023-05-25T18:15:10.645Z,2.90
2023-05-25T18:17:16.879Z,2.80
2023-05-25T18:19:42.584Z,3.40
2023-05-25T18:21:48.563Z,3.40
2023-05-25T18:24:11.717Z,2.75
2023-05-25T18:26:16.427Z,3.15
2023-05-25T18:28:25.085Z,3.03
2023-05-25T18:30:32.257Z,3.40
2023-05-25T18:34:39.316Z,3.90
2023-05-25T18:36:43.513Z,3.47
2023-05-25T18:39:06.367Z,3.00
2023-05-25T18:41:10.542Z,3.20
2023-05-25T18:43:32.813Z,2.83
2023-05-25T18:45:39.311Z,2.90
2023-05-25T18:48:08.056Z,2.72
2023-05-25T18:50:12.881Z,3.65
2023-05-25T18:52:18.877Z,3.30
2023-05-25T18:54:23.064Z,3.45
2023-05-25T18:56:27.109Z,4.25
2023-05-25T18:58:31.877Z,3.58
2023-05-25T19:00:36.009Z,3.67
2023-05-25T19:02:40.223Z,2.90
2023-05-25T19:04:44.382Z,4.05
2023-05-25T19:06:48.592Z,5.82
2023-05-25T19:09:08.776Z,3.83
2023-05-25T19:11:10.357Z,3.42
2023-05-25T19:13:14.455Z,3.63
2023-05-25T19:15:15.953Z,4.25
2023-05-25T19:17:21.507Z,3.33
2023-05-25T19:19:26.311Z,3.30
2023-05-25T19:21:30.312Z,3.28
2023-05-25T19:23:51.683Z,3.17
2023-05-25T19:25:53.152Z,3.53
2023-05-25T19:27:54.799Z,4.00
2023-05-25T19:29:56.320Z,3.53
2023-05-25T19:31:58.251Z,3.53
2023-05-25T19:33:59.768Z,2.92
2023-05-25T19:36:19.744Z,3.22
2023-05-25T19:38:22.141Z,3.65
2023-05-25T19:40:24.829Z,3.33
2023-05-25T19:42:45.031Z,3.60
2023-05-25T19:44:46.623Z,4.25
2023-05-25T19:47:07.015Z,3.30
2023-05-25T19:49:08.458Z,3.63
2023-05-25T19:51:13.040Z,4.18
2023-05-25T19:53:17.205Z,4.15
2023-05-25T19:55:18.673Z,4.40
2023-05-25T19:57:23.165Z,4.68
2023-05-25T19:59:28.089Z,4.25
2023-05-25T20:01:30.814Z,3.78
2023-05-25T20:03:32.395Z,4.00
2023-05-25T20:05:33.974Z,3.75
2023-05-25T20:07:36.040Z,4.10
2023-05-25T20:09:40.486Z,4.28
2023-05-25T20:11:42.177Z,3.38
2023-05-25T20:13:48.079Z,3.88
2023-05-25T20:15:52.387Z,3.92
2023-05-25T20:17:53.972Z,4.40
2023-05-25T20:20:00.800Z,4.10
2023-05-25T20:22:08.391Z,4.40
2023-05-25T20:24:10.067Z,3.63
2023-05-25T20:26:12.033Z,4.38
2023-05-25T20:28:16.322Z,4.25
2023-05-25T20:30:17.996Z,3.67
2023-05-25T20:32:38.194Z,4.03
2023-05-25T20:34:39.815Z,3.63
2023-05-25T20:36:44.462Z,5.25
2023-05-25T20:38:46.030Z,4.22
2023-05-25T20:40:50.171Z,5.35
2023-05-25T20:42:54.499Z,4.13
2023-05-25T20:44:56.165Z,4.53
2023-05-25T20:46:57.585Z,3.80
2023-05-25T20:49:03.481Z,4.90
2023-05-25T20:51:07.913Z,4.15
2023-05-25T20:53:10.726Z,4.07
2023-05-25T20:55:12.217Z,3.90
2023-05-25T20:57:16.583Z,3.58
2023-05-25T20:59:18.073Z,4.13
2023-05-25T21:01:19.590Z,3.78
2023-05-25T21:03:23.771Z,4.00
2023-05-25T21:05:44.959Z,3.88
2023-05-25T21:07:49.594Z,5.13
2023-05-25T21:09:51.239Z,4.53
2023-05-25T21:11:55.868Z,3.67
2023-05-25T21:13:57.390Z,4.93
2023-05-25T21:15:58.838Z,3.75
2023-05-25T21:18:18.929Z,4.20
2023-05-25T21:20:22.220Z,4.82
2023-05-25T21:22:24.297Z,3.78
2023-05-25T21:24:26.196Z,4.07
2023-05-25T21:26:31.067Z,3.90
2023-05-25T21:28:36.925Z,4.78
2023-05-25T21:30:49.110Z,4.55
2023-05-25T21:33:01.032Z,4.18
2023-05-25T21:35:10.881Z,4.32
2023-05-25T21:37:17.397Z,5.18
2023-05-25T21:43:37.171Z,5.65
2023-05-25T21:45:43.175Z,4.65
2023-05-25T21:48:06.708Z,4.68
2023-05-25T21:50:12.612Z,5.13
2023-05-25T21:52:23.863Z,4.00
2023-05-25T21:54:32.627Z,4.95
2023-05-25T21:56:56.393Z,4.85
2023-05-25T21:59:24.041Z,4.40
2023-05-25T22:01:32.736Z,4.85
2023-05-25T22:03:38.870Z,4.45
2023-05-25T22:05:43.442Z,5.03
2023-05-25T22:07:45.042Z,5.40
2023-05-25T22:09:49.427Z,4.50
2023-05-25T22:11:53.782Z,5.07
2023-05-25T22:13:58.303Z,5.40
2023-05-25T22:15:59.791Z,4.88
2023-05-25T22:18:05.935Z,4.75
2023-05-25T22:20:10.753Z,5.30
2023-05-25T22:22:15.338Z,4.63
2023-05-25T22:24:16.999Z,4.65
2023-05-25T22:26:18.509Z,5.20
2023-05-25T22:30:26.573Z,4.95
2023-05-25T22:32:28.114Z,4.68
2023-05-25T22:34:29.558Z,5.40
2023-05-25T22:36:31.116Z,4.40
2023-05-25T22:38:35.438Z,4.43
2023-05-25T22:40:36.916Z,5.28
2023-05-25T22:42:38.378Z,4.82
2023-05-25T22:44:42.634Z,4.32
2023-05-25T22:46:44.196Z,4.53
2023-05-25T22:48:48.670Z,4.93
2023-05-25T22:50:53.099Z,4.03
2023-05-25T22:52:58.447Z,4.93
2023-05-25T22:55:00.735Z,4.80
2023-05-25T22:57:05.791Z,3.95
2023-05-25T22:59:10.085Z,4.70
2023-05-25T23:01:11.546Z,5.00
2023-05-25T23:03:31.881Z,5.15
2023-05-25T23:05:36.277Z,4.95
2023-05-25T23:07:37.810Z,4.57
2023-05-25T23:09:42.545Z,5.10
2023-05-25T23:11:44.084Z,3.92
2023-05-25T23:13:48.773Z,4.07
2023-05-25T23:15:55.288Z,5.38
2023-05-25T23:17:57.002Z,4.65
2023-05-25T23:19:58.513Z,4.18
2023-05-25T23:22:03.087Z,4.30
2023-05-25T23:24:23.004Z,5.55
2023-05-25T23:28:31.327Z,4.50
2023-05-25T23:30:32.844Z,4.05
2023-05-25T23:32:34.737Z,5.13
2023-05-25T23:34:36.478Z,4.82
2023-05-25T23:36:42.786Z,3.70
2023-05-25T23:38:47.186Z,4.38
2023-05-25T23:40:51.576Z,4.05
2023-05-25T23:43:12.814Z,5.25
2023-05-25T23:45:14.412Z,4.97
2023-05-25T23:47:16.071Z,5.22
2023-05-25T23:49:20.321Z,4.15
2023-05-25T23:51:24.620Z,4.57
2023-05-25T23:53:26.133Z,4.60
2023-05-25T23:55:28.174Z,4.88
2023-05-25T23:57:32.605Z,5.45
2023-05-25T23:59:37.004Z,4.70
